Terminal Aerodrome Forecast
Issued by NWS Duluth, MN

Home | Current Version | Previous Version | Text Only | Print | Product List | Glossary On
Versions: 1 2 3 4 5 6 7 8 9 10 11 12 13 14 15 16 17 18 19 20 21 22 23 24 25 26 27 28
000
FTUS43 KDLH 242100 AAB
TAFINL
TAF AMD
KINL 242115Z 2421/2518 11010KT 4SM -RA BR OVC010
      TEMPO 2421/2424 1 1/2SM -SNRA BKN008 OVC013
     FM250000 10007KT 2SM -SN BR OVC007
     FM250300 05005KT 4SM -SNRA BR OVC006
     FM250700 14004KT 5SM -SN BR OVC003
     FM250900 11003KT 2SM BR VCSH OVC003
     FM251200 33012KT P6SM VCSH OVC030=

USA.gov is the U.S. government's official web portal to all federal, state and local government web resources and services.